Time;durP1;ratioP1;P1;durP2;ratioP2;P2;SDS_P1;SDS_P2;PMS_P1;PMS_P2;Temp;Humidity;BMP_temperature;BMP_pressure;BME280_temperature;BME280_humidity;BME280_pressure;Samples;Min_cycle;Max_cycle;Signal;HPM_P1;HPM_P2
2022/05/31 00:01:04;;;;;;;5.35;1.48;;;9.30;99.90;;;;;;5005975;28;20033;-73
2022/05/31 00:03:29;;;;;;;3.30;1.67;;;9.20;99.90;;;;;;5024203;28;20458;-75
2022/05/31 00:05:55;;;;;;;2.90;1.25;;;9.20;99.90;;;;;;5024143;28;20049;-75
2022/05/31 00:08:20;;;;;;;2.35;1.15;;;9.40;99.90;;;;;;5024085;28;20072;-74
2022/05/31 00:10:46;;;;;;;2.53;1.70;;;9.20;99.90;;;;;;5024311;28;20089;-74
2022/05/31 00:13:12;;;;;;;2.03;1.33;;;9.20;99.90;;;;;;5023134;28;20045;-74
2022/05/31 00:15:38;;;;;;;5.20;1.63;;;9.20;99.90;;;;;;5006364;28;20026;-74
2022/05/31 00:18:03;;;;;;;4.03;1.80;;;9.20;99.90;;;;;;5023943;28;20042;-74
2022/05/31 00:20:29;;;;;;;2.05;1.20;;;9.20;99.90;;;;;;5023977;28;20496;-74
2022/05/31 00:22:55;;;;;;;3.28;1.70;;;9.10;99.90;;;;;;5006066;28;20030;-74
2022/05/31 00:25:21;;;;;;;14.07;1.30;;;9.10;99.90;;;;;;5005132;28;20018;-75
2022/05/31 00:27:47;;;;;;;2.25;1.48;;;9.10;99.90;;;;;;5023785;28;20083;-75
2022/05/31 00:30:14;;;;;;;3.03;1.50;;;9.10;99.90;;;;;;5023562;28;20022;-75
2022/05/31 00:32:43;;;;;;;2.80;1.67;;;9.10;99.90;;;;;;5023799;28;20025;-74
2022/05/31 00:35:18;;;;;;;2.80;1.30;;;9.10;99.90;;;;;;5005538;28;20029;-75
2022/05/31 00:37:45;;;;;;;2.65;1.33;;;9.10;99.90;;;;;;5023651;28;20112;-74
2022/05/31 00:40:15;;;;;;;4.32;1.45;;;9.00;99.90;;;;;;5006028;28;20030;-74
2022/05/31 00:43:04;;;;;;;2.38;1.48;;;9.00;99.90;;;;;;5006119;28;20038;-75
2022/05/31 00:45:37;;;;;;;1.80;1.00;;;9.00;99.90;;;;;;5023516;28;20060;-75
2022/05/31 00:48:08;;;;;;;3.20;1.92;;;9.00;99.90;;;;;;5005626;28;20076;-73
2022/05/31 00:50:42;;;;;;;4.55;1.58;;;9.00;99.90;;;;;;5005646;28;20034;-74
2022/05/31 00:53:15;;;;;;;5.88;1.80;;;9.00;99.90;;;;;;5006047;28;20026;-74
2022/05/31 00:56:02;;;;;;;3.47;1.67;;;9.00;99.90;;;;;;5023349;28;20068;-74
2022/05/31 00:58:43;;;;;;;2.85;1.63;;;9.00;99.90;;;;;;5022857;28;20030;-74
2022/05/31 01:01:13;;;;;;;3.13;1.38;;;9.00;99.90;;;;;;5023217;28;20026;-74
2022/05/31 01:03:41;;;;;;;3.80;1.83;;;9.00;99.90;;;;;;5023026;28;20025;-75
2022/05/31 01:06:07;;;;;;;4.57;1.80;;;9.00;99.90;;;;;;5022683;28;20033;-75
2022/05/31 01:08:36;;;;;;;3.45;1.52;;;9.00;99.90;;;;;;5023065;28;20839;-74
2022/05/31 01:11:03;;;;;;;5.82;2.25;;;8.90;99.90;;;;;;5022822;28;20022;-74
2022/05/31 01:13:29;;;;;;;4.05;1.65;;;9.00;99.90;;;;;;5022855;28;20252;-73
2022/05/31 01:16:07;;;;;;;1.83;1.13;;;8.90;99.90;;;;;;5022370;28;20025;-75
2022/05/31 01:18:33;;;;;;;6.68;1.80;;;9.00;99.90;;;;;;5022849;28;20029;-75
2022/05/31 01:21:02;;;;;;;7.57;1.48;;;9.00;99.90;;;;;;5022840;28;20033;-75
2022/05/31 01:23:32;;;;;;;2.53;1.70;;;9.00;99.90;;;;;;5022820;28;20026;-74
2022/05/31 01:26:15;;;;;;;2.75;1.58;;;9.00;99.90;;;;;;5022548;28;20056;-74
2022/05/31 01:29:19;;;;;;;1.92;1.30;;;9.00;99.90;;;;;;5022696;28;20032;-74
2022/05/31 01:31:52;;;;;;;3.25;1.85;;;9.00;99.90;;;;;;5022871;28;20022;-75
2022/05/31 01:34:38;;;;;;;2.37;1.40;;;9.00;99.90;;;;;;5022355;28;20097;-76
2022/05/31 01:37:05;;;;;;;7.15;1.55;;;9.00;99.90;;;;;;5003886;28;20038;-74
2022/05/31 01:39:53;;;;;;;11.77;1.63;;;9.00;99.90;;;;;;5022205;28;20184;-75
2022/05/31 01:42:46;;;;;;;2.05;1.58;;;9.00;99.90;;;;;;5004510;28;20030;-74
2022/05/31 01:45:18;;;;;;;4.40;1.80;;;9.00;99.90;;;;;;5018798;28;20041;-74
2022/05/31 01:47:44;;;;;;;3.50;1.65;;;9.00;99.90;;;;;;5022404;28;20149;-75
2022/05/31 01:50:20;;;;;;;3.13;1.42;;;9.00;99.90;;;;;;5022580;28;20030;-74
2022/05/31 01:52:47;;;;;;;1.90;1.13;;;9.00;99.90;;;;;;5004891;28;20022;-75
2022/05/31 01:55:14;;;;;;;3.08;1.95;;;9.00;99.90;;;;;;5022670;28;20046;-75
2022/05/31 01:57:42;;;;;;;2.85;1.38;;;9.00;99.90;;;;;;5021974;28;20101;-75
2022/05/31 02:00:11;;;;;;;9.15;2.30;;;9.00;99.90;;;;;;5022007;28;20026;-75
2022/05/31 02:02:37;;;;;;;3.10;1.50;;;9.00;99.90;;;;;;5022085;28;20026;-74
2022/05/31 02:05:03;;;;;;;3.50;1.77;;;9.00;99.90;;;;;;5021804;28;20784;-76
2022/05/31 02:07:30;;;;;;;2.70;1.35;;;9.00;99.90;;;;;;5022310;28;20078;-75
2022/05/31 02:09:57;;;;;;;3.97;1.90;;;9.00;99.90;;;;;;5021401;28;20026;-75
2022/05/31 02:12:25;;;;;;;2.00;1.60;;;9.00;99.90;;;;;;5021714;28;20021;-75
2022/05/31 02:14:51;;;;;;;7.35;2.08;;;9.00;99.90;;;;;;5021619;28;20022;-74
2022/05/31 02:17:17;;;;;;;2.53;1.52;;;9.00;99.90;;;;;;5022456;28;20045;-75
2022/05/31 02:19:43;;;;;;;2.63;1.42;;;9.00;99.90;;;;;;5022197;28;20029;-75
2022/05/31 02:22:14;;;;;;;11.18;1.92;;;9.00;99.90;;;;;;5021950;28;20105;-74
2022/05/31 02:24:40;;;;;;;2.17;1.20;;;8.90;99.90;;;;;;5021753;28;20018;-74
2022/05/31 02:27:07;;;;;;;3.17;1.70;;;9.00;99.90;;;;;;5021979;28;20049;-74
2022/05/31 02:29:36;;;;;;;2.03;1.40;;;9.00;99.90;;;;;;5021624;28;20026;-74
2022/05/31 02:32:06;;;;;;;2.95;1.70;;;8.90;99.90;;;;;;5021780;28;20033;-74
2022/05/31 02:34:44;;;;;;;9.82;1.83;;;9.00;99.90;;;;;;5022072;28;20064;-74
2022/05/31 02:37:10;;;;;;;2.63;1.27;;;9.00;99.90;;;;;;5021838;28;20129;-74
2022/05/31 02:39:35;;;;;;;3.63;1.52;;;9.00;99.90;;;;;;5021919;28;20053;-74
2022/05/31 02:42:02;;;;;;;5.30;2.20;;;9.00;99.90;;;;;;5021852;28;20049;-74
2022/05/31 02:44:28;;;;;;;5.72;2.30;;;9.00;99.90;;;;;;5021696;28;20061;-74
2022/05/31 02:46:54;;;;;;;2.38;1.55;;;9.00;99.90;;;;;;5021268;28;20815;-74
2022/05/31 02:49:20;;;;;;;4.93;2.05;;;9.00;99.90;;;;;;5024116;28;20045;-74
2022/05/31 02:51:47;;;;;;;2.72;1.60;;;9.00;99.90;;;;;;5007672;28;20026;-76
2022/05/31 02:54:16;;;;;;;2.65;1.27;;;9.00;99.90;;;;;;5025983;28;20034;-76
2022/05/31 02:56:43;;;;;;;6.15;1.92;;;8.90;99.90;;;;;;5026142;28;20034;-75
2022/05/31 02:59:09;;;;;;;4.35;1.77;;;9.00;99.90;;;;;;5008344;28;20049;-73
2022/05/31 03:01:39;;;;;;;6.22;2.03;;;8.90;99.90;;;;;;5007693;28;20018;-76
2022/05/31 03:04:06;;;;;;;2.70;1.77;;;9.00;99.90;;;;;;5025297;28;20198;-74
2022/05/31 03:06:34;;;;;;;3.53;1.73;;;9.00;99.90;;;;;;5025197;28;20619;-74
2022/05/31 03:08:59;;;;;;;4.70;1.92;;;9.00;99.90;;;;;;5025017;28;20109;-75
2022/05/31 03:11:35;;;;;;;4.60;2.33;;;9.00;99.90;;;;;;5025262;28;20040;-75
2022/05/31 03:14:17;;;;;;;4.95;2.75;;;9.00;99.90;;;;;;5024889;28;20088;-74
2022/05/31 03:16:46;;;;;;;6.20;2.15;;;9.10;99.90;;;;;;5025186;28;20092;-75
2022/05/31 03:19:18;;;;;;;3.65;2.08;;;9.10;99.90;;;;;;5025002;28;20018;-74
2022/05/31 03:22:18;;;;;;;6.65;3.40;;;9.10;99.90;;;;;;5007644;28;20485;-75
2022/05/31 03:24:50;;;;;;;4.65;2.45;;;9.10;99.90;;;;;;5007429;28;20033;-75
2022/05/31 03:27:16;;;;;;;7.70;2.22;;;9.10;99.90;;;;;;5025008;28;20030;-74
2022/05/31 03:29:45;;;;;;;6.20;3.33;;;9.20;99.90;;;;;;5024943;28;20034;-74
2022/05/31 03:32:13;;;;;;;6.70;2.67;;;9.20;99.90;;;;;;5025011;28;20105;-74
2022/05/31 03:34:39;;;;;;;4.68;2.50;;;9.20;99.90;;;;;;5024732;28;20044;-74
2022/05/31 03:37:05;;;;;;;4.05;2.38;;;9.20;99.90;;;;;;5024045;28;20496;-74
2022/05/31 03:39:31;;;;;;;4.72;2.85;;;9.20;99.90;;;;;;5007100;28;20090;-74
2022/05/31 03:41:59;;;;;;;6.15;2.92;;;9.20;99.90;;;;;;5006979;28;20558;-74
2022/05/31 03:44:24;;;;;;;4.10;3.08;;;9.30;99.90;;;;;;5024457;28;20040;-75
2022/05/31 03:46:50;;;;;;;5.88;2.67;;;9.30;99.90;;;;;;5024269;28;20050;-74
2022/05/31 03:49:16;;;;;;;7.40;3.78;;;9.30;99.90;;;;;;5024864;28;20026;-75
2022/05/31 03:51:42;;;;;;;6.70;3.38;;;9.30;99.90;;;;;;5024740;28;20104;-75
2022/05/31 03:54:08;;;;;;;5.00;3.08;;;9.40;99.90;;;;;;5024579;28;20018;-74
2022/05/31 03:56:36;;;;;;;6.43;3.53;;;9.40;99.90;;;;;;5024325;28;20088;-74
2022/05/31 03:59:05;;;;;;;6.47;3.55;;;9.40;99.90;;;;;;5024240;28;20033;-75
2022/05/31 04:01:31;;;;;;;4.10;2.88;;;9.40;99.90;;;;;;5022830;28;20030;-75
2022/05/31 04:03:56;;;;;;;7.20;3.28;;;9.40;99.90;;;;;;5006733;28;20029;-74
2022/05/31 04:06:22;;;;;;;5.95;3.42;;;9.50;99.90;;;;;;5006634;28;20037;-76
2022/05/31 04:08:49;;;;;;;7.15;3.40;;;9.50;99.90;;;;;;5023839;28;20029;-74
2022/05/31 04:11:15;;;;;;;7.85;2.72;;;9.50;99.90;;;;;;5023985;28;20044;-74
2022/05/31 04:13:41;;;;;;;8.05;3.55;;;9.50;99.90;;;;;;5002465;28;20077;-76
2022/05/31 04:16:12;;;;;;;5.43;2.83;;;9.50;99.90;;;;;;5002991;28;20042;-75
2022/05/31 04:18:39;;;;;;;7.97;2.90;;;9.50;99.90;;;;;;5004359;28;20030;-75
2022/05/31 04:21:07;;;;;;;4.57;2.58;;;9.50;99.90;;;;;;5004424;28;20022;-75
2022/05/31 04:26:18;;;;;;;3.38;2.25;;;9.60;99.90;;;;;;5004068;28;20030;-74
2022/05/31 04:28:43;;;;;;;5.40;2.50;;;9.60;99.90;;;;;;5004346;28;20022;-75
2022/05/31 04:31:09;;;;;;;3.92;2.67;;;9.60;99.90;;;;;;5002963;28;20413;-74
2022/05/31 04:33:36;;;;;;;3.75;2.20;;;9.60;99.90;;;;;;5004078;28;20022;-75
2022/05/31 04:36:13;;;;;;;4.32;2.42;;;9.60;99.90;;;;;;5004108;28;20058;-74
2022/05/31 04:38:39;;;;;;;4.05;2.60;;;9.60;99.90;;;;;;5003831;28;20034;-74
2022/05/31 04:41:06;;;;;;;3.58;2.13;;;9.60;99.90;;;;;;5002726;28;20014;-75
2022/05/31 04:43:32;;;;;;;3.35;2.05;;;9.60;99.90;;;;;;5003567;28;20087;-75
2022/05/31 04:46:18;;;;;;;8.05;2.65;;;9.70;99.90;;;;;;5002659;28;20023;-74
2022/05/31 04:48:45;;;;;;;5.07;2.53;;;9.70;99.90;;;;;;5003950;28;20023;-75
2022/05/31 04:51:12;;;;;;;4.18;2.53;;;9.70;99.90;;;;;;5003986;28;20026;-75
2022/05/31 04:53:39;;;;;;;4.90;2.38;;;9.80;99.90;;;;;;5002582;28;20169;-72
2022/05/31 04:56:09;;;;;;;3.88;2.58;;;9.80;99.90;;;;;;5002346;28;20426;-73
2022/05/31 04:58:34;;;;;;;4.25;2.03;;;9.80;99.90;;;;;;5003299;28;20529;-73
2022/05/31 05:01:01;;;;;;;4.57;2.22;;;9.80;99.90;;;;;;5003716;28;20023;-75
2022/05/31 05:03:29;;;;;;;5.55;2.47;;;9.90;99.90;;;;;;5003956;28;20022;-73
2022/05/31 05:05:59;;;;;;;3.67;2.10;;;9.90;99.90;;;;;;5003046;28;20062;-74
2022/05/31 05:08:25;;;;;;;4.93;2.63;;;9.90;99.90;;;;;;5003640;28;20538;-75
2022/05/31 05:10:51;;;;;;;3.83;2.03;;;9.90;99.90;;;;;;5001780;28;20080;-74
2022/05/31 05:13:17;;;;;;;6.63;2.45;;;9.90;99.90;;;;;;5010336;28;20509;-74
2022/05/31 05:15:43;;;;;;;4.18;2.38;;;10.00;99.90;;;;;;5021181;28;20057;-74
2022/05/31 05:18:09;;;;;;;3.67;2.20;;;10.00;99.90;;;;;;5015393;28;20042;-74
2022/05/31 05:20:37;;;;;;;3.83;2.35;;;10.00;99.90;;;;;;5018776;28;20025;-75
2022/05/31 05:23:04;;;;;;;4.50;2.47;;;10.10;99.90;;;;;;5022207;28;20117;-75
2022/05/31 05:25:30;;;;;;;2.88;1.80;;;10.10;99.90;;;;;;5022849;28;20033;-75
2022/05/31 05:27:56;;;;;;;4.55;2.42;;;10.20;99.90;;;;;;5022874;28;20025;-74
2022/05/31 05:30:41;;;;;;;2.97;2.33;;;10.20;99.90;;;;;;5021742;28;20102;-76
2022/05/31 05:33:09;;;;;;;7.80;3.38;;;10.30;99.90;;;;;;5021292;28;20041;-75
2022/05/31 05:35:35;;;;;;;8.63;2.35;;;10.30;99.90;;;;;;5020735;28;20026;-75
2022/05/31 05:38:01;;;;;;;9.45;2.70;;;10.40;99.90;;;;;;5002694;28;20048;-74
2022/05/31 05:40:27;;;;;;;4.82;2.42;;;10.40;99.90;;;;;;5020330;28;20037;-75
2022/05/31 05:42:52;;;;;;;13.27;1.95;;;10.40;99.90;;;;;;5003426;28;20030;-75
2022/05/31 05:45:18;;;;;;;2.55;1.90;;;10.40;99.90;;;;;;5003545;28;20703;-76
2022/05/31 05:47:46;;;;;;;4.45;2.47;;;10.50;99.90;;;;;;5021950;28;20028;-77
2022/05/31 05:50:11;;;;;;;5.75;2.40;;;10.50;99.90;;;;;;5022068;28;20033;-75
2022/05/31 05:52:39;;;;;;;3.67;1.92;;;10.60;99.90;;;;;;5020493;28;20040;-75
2022/05/31 05:55:05;;;;;;;6.82;2.58;;;10.70;99.90;;;;;;5003883;28;20045;-75
2022/05/31 05:57:31;;;;;;;4.03;2.55;;;10.70;99.90;;;;;;5022268;28;20106;-74
2022/05/31 05:59:57;;;;;;;2.58;1.63;;;10.80;99.90;;;;;;5022312;28;20061;-73
2022/05/31 06:02:31;;;;;;;4.03;1.80;;;10.80;99.90;;;;;;5022354;28;20034;-73
2022/05/31 06:05:07;;;;;;;4.97;1.80;;;10.80;99.90;;;;;;5019865;28;20042;-74
2022/05/31 06:07:38;;;;;;;2.50;1.77;;;10.80;99.90;;;;;;5003472;28;20061;-75
2022/05/31 06:10:14;;;;;;;1.88;1.50;;;10.90;99.90;;;;;;5022286;28;20044;-73
2022/05/31 06:12:46;;;;;;;2.88;1.77;;;10.90;99.90;;;;;;5021039;28;20056;-73
2022/05/31 06:15:18;;;;;;;5.25;2.30;;;10.90;99.90;;;;;;5021419;28;20038;-74
2022/05/31 06:17:46;;;;;;;3.63;2.10;;;10.90;99.90;;;;;;5021857;28;20069;-76
2022/05/31 06:20:16;;;;;;;8.90;1.90;;;11.00;99.90;;;;;;5019949;28;20022;-75
2022/05/31 06:22:43;;;;;;;3.95;1.88;;;11.00;99.90;;;;;;5001696;28;20121;-74
2022/05/31 06:25:12;;;;;;;3.28;2.00;;;11.00;99.90;;;;;;5024554;28;20111;-75
2022/05/31 06:27:37;;;;;;;3.17;2.05;;;11.10;99.90;;;;;;5022634;28;20081;-74
2022/05/31 06:30:04;;;;;;;3.60;2.13;;;11.20;99.90;;;;;;5025790;28;20030;-75
2022/05/31 06:32:29;;;;;;;3.33;1.73;;;11.20;99.90;;;;;;5025544;28;20032;-75
2022/05/31 06:34:55;;;;;;;5.25;2.08;;;11.30;99.90;;;;;;5025951;28;20030;-75
2022/05/31 06:37:21;;;;;;;4.80;1.98;;;11.30;99.90;;;;;;5025829;28;20034;-73
2022/05/31 06:39:46;;;;;;;2.95;2.13;;;11.40;99.90;;;;;;5026023;28;20034;-75
2022/05/31 06:42:13;;;;;;;4.30;2.28;;;11.50;99.90;;;;;;5025516;28;20025;-76
2022/05/31 06:44:41;;;;;;;4.20;2.33;;;11.50;99.90;;;;;;5021995;28;20021;-74
2022/05/31 06:47:07;;;;;;;3.83;2.10;;;11.60;99.90;;;;;;5023840;28;20037;-75
2022/05/31 06:49:35;;;;;;;6.13;2.78;;;11.70;99.90;;;;;;5024116;28;20040;-74
2022/05/31 06:57:36;;;;;;;3.50;1.75;;;11.80;99.90;;;;;;5024344;28;20044;-73
2022/05/31 07:00:07;;;;;;;2.85;1.67;;;11.90;99.90;;;;;;5023518;28;20030;-75
2022/05/31 07:02:33;;;;;;;4.35;2.20;;;11.90;99.90;;;;;;5023914;28;20064;-75
2022/05/31 07:04:59;;;;;;;3.45;1.98;;;11.90;99.90;;;;;;5006866;28;20049;-76
2022/05/31 07:07:25;;;;;;;2.83;1.75;;;12.00;99.90;;;;;;5023855;28;20030;-74
2022/05/31 07:09:52;;;;;;;4.25;2.15;;;12.00;99.90;;;;;;5024384;28;20045;-74
2022/05/31 07:12:18;;;;;;;2.67;1.77;;;12.10;99.90;;;;;;5007625;28;20030;-74
2022/05/31 07:14:44;;;;;;;3.17;1.92;;;12.10;99.90;;;;;;5007847;28;20056;-76
2022/05/31 07:17:10;;;;;;;4.05;2.13;;;12.20;99.90;;;;;;5024513;28;20049;-76
2022/05/31 07:19:38;;;;;;;6.35;1.63;;;12.30;99.90;;;;;;5007034;28;20021;-76
2022/05/31 07:22:03;;;;;;;2.15;1.42;;;12.40;99.90;;;;;;5020977;28;20100;-76
2022/05/31 07:24:31;;;;;;;3.47;1.75;;;12.50;99.90;;;;;;5023298;28;20030;-75
2022/05/31 07:26:57;;;;;;;2.40;1.55;;;12.60;99.90;;;;;;5024788;28;20038;-75
2022/05/31 07:29:22;;;;;;;2.95;1.58;;;12.70;99.90;;;;;;5020829;28;20402;-74
2022/05/31 07:31:51;;;;;;;2.67;1.52;;;12.70;99.90;;;;;;5024088;28;20057;-76
2022/05/31 07:34:19;;;;;;;2.03;1.55;;;12.80;99.90;;;;;;5023777;28;20395;-76
2022/05/31 07:36:45;;;;;;;4.68;2.33;;;12.90;99.90;;;;;;5006897;28;20062;-75
2022/05/31 07:39:14;;;;;;;2.88;1.80;;;13.00;99.90;;;;;;5023898;28;20018;-74
2022/05/31 07:41:39;;;;;;;2.35;1.75;;;13.10;99.90;;;;;;5024336;28;20048;-75
2022/05/31 07:44:05;;;;;;;3.22;1.83;;;13.20;99.90;;;;;;5006080;28;20053;-74
2022/05/31 07:46:31;;;;;;;2.85;1.60;;;13.30;99.90;;;;;;5023127;28;20057;-75
2022/05/31 07:49:00;;;;;;;4.82;1.73;;;13.40;99.90;;;;;;5023223;28;20033;-76
2022/05/31 07:51:27;;;;;;;3.85;1.65;;;13.50;99.90;;;;;;5022701;28;20022;-75
2022/05/31 07:53:53;;;;;;;4.35;1.38;;;13.60;99.90;;;;;;5024012;28;20030;-75
2022/05/31 07:56:19;;;;;;;5.43;2.17;;;13.70;99.90;;;;;;5023907;28;20052;-75
2022/05/31 07:58:47;;;;;;;3.55;1.80;;;13.70;99.90;;;;;;5024083;28;20042;-76
2022/05/31 08:01:16;;;;;;;3.47;1.75;;;13.90;99.90;;;;;;5005608;28;20030;-75
2022/05/31 08:03:47;;;;;;;4.97;1.73;;;13.90;99.90;;;;;;5022346;28;20382;-75
2022/05/31 08:06:23;;;;;;;4.85;2.30;;;14.00;99.90;;;;;;5022419;28;20434;-74
2022/05/31 08:08:53;;;;;;;3.55;2.00;;;14.10;99.90;;;;;;5020319;28;20587;-76
2022/05/31 08:11:27;;;;;;;3.47;1.83;;;14.10;99.90;;;;;;5003754;28;20033;-75
2022/05/31 08:13:53;;;;;;;4.32;1.77;;;14.20;99.90;;;;;;5002085;28;20042;-75
2022/05/31 08:16:21;;;;;;;6.82;1.98;;;14.30;99.90;;;;;;5004551;28;20038;-73
2022/05/31 08:18:48;;;;;;;2.80;1.77;;;14.20;99.90;;;;;;5004660;28;20026;-75
2022/05/31 08:21:27;;;;;;;2.92;1.52;;;14.30;99.90;;;;;;5003550;28;20523;-76
2022/05/31 08:23:54;;;;;;;2.95;1.80;;;14.30;99.90;;;;;;5002017;28;20125;-77
2022/05/31 08:26:20;;;;;;;4.65;1.60;;;14.30;99.90;;;;;;5004008;28;20038;-76
2022/05/31 08:28:50;;;;;;;2.22;1.63;;;14.40;99.90;;;;;;5002571;28;20034;-76
2022/05/31 08:31:24;;;;;;;2.33;1.25;;;14.50;99.90;;;;;;5003998;28;20034;-75
2022/05/31 08:33:50;;;;;;;2.80;1.55;;;14.50;99.90;;;;;;5003745;28;20034;-76
2022/05/31 08:36:18;;;;;;;4.65;2.00;;;14.60;99.90;;;;;;5002091;28;20042;-77
2022/05/31 08:38:45;;;;;;;6.50;1.90;;;14.60;99.90;;;;;;5002007;28;20793;-75
2022/05/31 08:41:25;;;;;;;2.40;1.58;;;14.80;99.90;;;;;;5004079;28;20030;-76
2022/05/31 08:43:59;;;;;;;4.30;1.30;;;14.80;99.90;;;;;;5002168;28;20030;-77
2022/05/31 08:46:31;;;;;;;2.70;1.27;;;14.90;99.90;;;;;;5001604;28;20104;-75
2022/05/31 08:48:58;;;;;;;6.82;2.53;;;15.00;99.90;;;;;;5003325;28;20026;-75
2022/05/31 08:52:04;;;;;;;4.15;2.20;;;14.90;99.90;;;;;;5001486;28;20077;-76
2022/05/31 08:57:36;;;;;;;5.00;2.13;;;15.10;99.90;;;;;;5002768;28;20071;-77
2022/05/31 09:00:07;;;;;;;10.95;2.00;;;15.30;99.90;;;;;;4999506;28;20126;-76
2022/05/31 09:03:06;;;;;;;1.90;1.35;;;15.40;99.90;;;;;;5002052;28;20482;-75
2022/05/31 09:05:36;;;;;;;7.03;1.88;;;15.60;99.90;;;;;;5003281;28;20023;-76
2022/05/31 09:08:12;;;;;;;2.55;1.35;;;15.80;99.90;;;;;;5003384;28;20058;-76
2022/05/31 09:10:47;;;;;;;3.35;1.92;;;15.80;99.90;;;;;;5001122;28;20041;-74
2022/05/31 09:13:31;;;;;;;4.40;1.60;;;15.90;99.90;;;;;;4999396;28;20054;-76
2022/05/31 09:16:07;;;;;;;;;;;16.10;99.90;;;;;;4998923;28;20033;-75
2022/05/31 09:18:55;;;;;;;4.97;1.20;;;16.10;99.90;;;;;;5001212;28;20025;-76
2022/05/31 09:21:37;;;;;;;2.00;1.10;;;16.20;99.90;;;;;;5000017;28;20023;-75
2022/05/31 09:24:10;;;;;;;2.13;1.23;;;16.30;99.90;;;;;;5000384;28;20246;-74
2022/05/31 09:26:55;;;;;;;4.90;1.67;;;16.40;99.90;;;;;;5017736;28;20034;-75
2022/05/31 09:29:52;;;;;;;2.65;1.38;;;16.50;99.90;;;;;;5001860;28;20088;-75
2022/05/31 09:32:36;;;;;;;5.18;1.20;;;16.50;99.90;;;;;;5001277;28;20122;-75
2022/05/31 09:35:02;;;;;;;1.67;1.10;;;16.60;99.90;;;;;;4993524;28;20054;-77
2022/05/31 09:38:07;;;;;;;2.10;1.02;;;16.60;99.90;;;;;;4999138;28;20050;-75
2022/05/31 09:40:44;;;;;;;1.98;1.33;;;16.70;99.90;;;;;;4980118;28;20038;-75
2022/05/31 09:43:45;;;;;;;2.88;0.95;;;16.80;99.90;;;;;;5001411;28;20030;-74
2022/05/31 09:46:13;;;;;;;2.35;1.20;;;16.70;99.90;;;;;;5000702;28;20494;-75
2022/05/31 09:48:49;;;;;;;2.88;1.38;;;16.70;99.90;;;;;;5001889;28;20029;-77
2022/05/31 09:51:38;;;;;;;1.65;1.00;;;16.80;99.90;;;;;;4999949;28;20053;-73
2022/05/31 09:57:05;;;;;;;1.77;1.02;;;16.40;99.90;;;;;;5000997;28;20100;-77
2022/05/31 09:59:33;;;;;;;1.05;0.80;;;16.50;99.90;;;;;;4999453;28;20085;-76
2022/05/31 10:02:20;;;;;;;0.75;0.68;;;16.60;99.90;;;;;;5002327;28;20022;-76
2022/05/31 10:04:48;;;;;;;5.97;0.75;;;16.90;99.90;;;;;;5001902;28;20041;-76
2022/05/31 10:07:33;;;;;;;2.83;1.10;;;17.10;99.90;;;;;;5000440;28;20058;-78
2022/05/31 10:10:11;;;;;;;4.05;1.27;;;17.40;99.90;;;;;;4998341;28;20041;-75
2022/05/31 10:12:47;;;;;;;1.30;0.50;;;17.40;99.90;;;;;;5002082;28;20030;-74
2022/05/31 10:15:29;;;;;;;1.67;0.88;;;17.50;99.90;;;;;;5004533;28;20434;-74
2022/05/31 10:18:02;;;;;;;2.92;1.27;;;17.60;99.90;;;;;;5021833;28;20061;-73
2022/05/31 10:20:27;;;;;;;3.42;1.10;;;17.80;99.90;;;;;;5004451;28;20033;-75
2022/05/31 10:22:56;;;;;;;1.98;1.20;;;17.80;99.90;;;;;;5003665;28;20030;-71
2022/05/31 10:25:31;;;;;;;1.55;1.00;;;17.80;99.90;;;;;;5022118;28;20022;-75
2022/05/31 10:28:00;;;;;;;1.85;0.93;;;17.90;99.90;;;;;;5021785;28;20026;-76
2022/05/31 10:30:27;;;;;;;1.67;0.88;;;17.90;99.90;;;;;;5021987;28;20104;-74
2022/05/31 10:33:19;;;;;;;2.13;1.23;;;17.90;99.90;;;;;;5003822;28;20421;-74
2022/05/31 10:36:05;;;;;;;2.15;1.02;;;17.90;99.90;;;;;;5021998;28;20475;-75
2022/05/31 10:38:31;;;;;;;1.52;0.93;;;18.00;99.90;;;;;;5004191;28;20038;-74
2022/05/31 10:41:07;;;;;;;1.90;0.90;;;18.20;99.90;;;;;;5003902;28;20112;-74
2022/05/31 10:43:44;;;;;;;1.83;1.10;;;18.10;99.90;;;;;;5003508;28;20487;-77
2022/05/31 10:46:38;;;;;;;1.10;0.68;;;18.20;99.90;;;;;;5004199;28;20021;-75
2022/05/31 10:49:30;;;;;;;1.10;0.85;;;18.10;99.90;;;;;;5021039;28;20061;-77
2022/05/31 10:52:19;;;;;;;1.13;0.80;;;18.20;99.90;;;;;;5018245;28;20049;-74
2022/05/31 10:55:20;;;;;;;8.02;1.40;;;18.20;99.90;;;;;;5021681;28;20077;-77
2022/05/31 10:57:57;;;;;;;4.75;1.10;;;18.30;99.90;;;;;;5002334;28;20038;-75
2022/05/31 11:00:35;;;;;;;1.95;0.70;;;18.40;99.90;;;;;;5003886;28;21102;-76
2022/05/31 11:03:30;;;;;;;1.25;0.85;;;18.50;99.90;;;;;;5003644;28;20018;-77
2022/05/31 11:06:21;;;;;;;0.90;0.60;;;18.50;99.90;;;;;;5004339;28;20025;-75
2022/05/31 11:12:15;;;;;;;5.03;1.05;;;18.60;99.90;;;;;;5025333;28;20041;-75
2022/05/31 11:14:53;;;;;;;1.05;0.73;;;18.60;99.90;;;;;;5021783;28;20077;-75
2022/05/31 11:17:46;;;;;;;2.13;1.20;;;18.50;99.90;;;;;;5006988;28;20064;-75
2022/05/31 11:20:18;;;;;;;5.30;1.20;;;18.40;99.90;;;;;;5007575;28;20466;-75
2022/05/31 11:23:10;;;;;;;1.20;0.90;;;18.40;99.90;;;;;;5007298;28;20033;-76
2022/05/31 11:26:10;;;;;;;2.78;0.85;;;18.70;99.90;;;;;;5006177;28;20037;-76
2022/05/31 11:28:41;;;;;;;11.95;1.20;;;19.10;99.90;;;;;;5007261;28;20034;-76
2022/05/31 11:31:42;;;;;;;1.65;0.80;;;19.30;99.90;;;;;;5024496;28;20026;-77
2022/05/31 11:34:37;;;;;;;2.15;1.20;;;19.30;99.90;;;;;;5024965;28;20121;-76
2022/05/31 11:37:02;;;;;;;;;;;19.20;99.90;;;;;;5025073;28;20034;-75
2022/05/31 11:39:58;;;;;;;9.05;1.33;;;19.00;99.90;;;;;;5007160;28;19911;-75
2022/05/31 11:42:31;;;;;;;2.78;0.90;;;18.70;99.90;;;;;;5006812;28;20057;-75
2022/05/31 11:45:19;;;;;;;2.08;1.08;;;18.60;99.90;;;;;;5024004;28;20105;-74
2022/05/31 11:47:54;;;;;;;1.83;1.00;;;18.30;99.90;;;;;;5007432;28;20034;-76
2022/05/31 11:50:26;;;;;;;1.30;1.20;;;18.10;99.90;;;;;;5022344;28;20030;-75
2022/05/31 11:53:13;;;;;;;3.78;1.42;;;17.90;99.90;;;;;;5024754;28;20022;-75
2022/05/31 11:55:50;;;;;;;1.02;0.85;;;17.70;99.90;;;;;;5006511;28;20041;-75
2022/05/31 11:58:25;;;;;;;8.23;1.45;;;17.50;99.90;;;;;;5005846;28;20041;-76
2022/05/31 12:01:23;;;;;;;1.23;0.93;;;17.40;99.90;;;;;;5023902;28;20029;-76
2022/05/31 12:04:06;;;;;;;3.10;1.25;;;17.30;99.90;;;;;;5023758;28;20544;-76
2022/05/31 12:06:56;;;;;;;2.80;0.77;;;17.30;99.90;;;;;;5024205;28;20053;-76
2022/05/31 12:09:35;;;;;;;4.15;1.20;;;17.20;99.90;;;;;;5005988;28;20045;-78
2022/05/31 12:12:05;;;;;;;2.38;1.08;;;17.10;99.90;;;;;;5024158;28;20026;-74
2022/05/31 12:14:38;;;;;;;1.10;0.80;;;17.10;99.90;;;;;;5023685;28;20091;-75
2022/05/31 12:17:05;;;;;;;1.65;1.10;;;17.10;99.90;;;;;;5006130;28;20036;-74
2022/05/31 12:19:38;;;;;;;2.25;1.10;;;17.10;99.90;;;;;;5006412;28;20030;-74
2022/05/31 12:22:21;;;;;;;11.98;0.93;;;17.10;99.90;;;;;;5022297;28;20025;-76
2022/05/31 12:25:03;;;;;;;2.58;1.25;;;17.10;99.90;;;;;;5023859;28;20026;-76
2022/05/31 12:27:46;;;;;;;1.55;0.80;;;17.10;99.90;;;;;;5024033;28;20060;-77
2022/05/31 12:30:23;;;;;;;3.40;1.08;;;17.00;99.90;;;;;;5005938;28;20451;-76
2022/05/31 12:32:54;;;;;;;1.27;1.02;;;17.00;99.90;;;;;;5003809;28;20136;-77
2022/05/31 12:35:32;;;;;;;1.65;1.02;;;17.00;99.90;;;;;;5004385;28;20033;-75
2022/05/31 12:38:01;;;;;;;0.70;0.63;;;17.00;99.90;;;;;;5023288;28;20030;-78
2022/05/31 12:40:27;;;;;;;0.73;0.70;;;17.00;99.90;;;;;;5005210;28;20040;-76
2022/05/31 12:42:53;;;;;;;1.27;0.80;;;17.00;99.90;;;;;;5022725;28;20112;-75
2022/05/31 12:45:36;;;;;;;5.35;1.13;;;17.00;99.90;;;;;;5022770;28;20022;-77
2022/05/31 12:48:19;;;;;;;1.58;0.82;;;17.00;99.90;;;;;;5006005;28;20026;-78
2022/05/31 12:50:48;;;;;;;3.53;1.08;;;16.90;99.90;;;;;;5023431;28;20080;-77
2022/05/31 12:53:23;;;;;;;1.13;0.68;;;16.90;99.90;;;;;;5022445;28;20030;-78
2022/05/31 12:55:51;;;;;;;1.48;0.82;;;16.80;99.90;;;;;;5021649;28;20026;-77
2022/05/31 12:58:35;;;;;;;1.08;0.98;;;16.80;99.90;;;;;;5022837;28;20735;-78
2022/05/31 13:01:14;;;;;;;1.40;0.98;;;16.80;99.90;;;;;;5022283;28;20029;-77
2022/05/31 13:03:52;;;;;;;1.50;1.00;;;16.70;99.90;;;;;;5020601;28;20466;-78
2022/05/31 13:06:37;;;;;;;1.42;0.75;;;16.70;99.90;;;;;;5004948;28;20018;-78
2022/05/31 13:09:14;;;;;;;1.65;0.95;;;16.70;99.90;;;;;;5022363;28;20033;-75
2022/05/31 13:20:39;;;;;;;1.60;1.00;;;16.70;99.90;;;;;;5021332;28;20061;-78
2022/05/31 13:23:19;;;;;;;1.50;1.05;;;16.80;99.90;;;;;;5014889;28;20033;-78
2022/05/31 13:26:00;;;;;;;1.90;1.02;;;16.80;99.90;;;;;;4999173;28;20033;-79
2022/05/31 13:28:34;;;;;;;1.33;0.90;;;16.90;99.90;;;;;;5020307;28;20037;-78
2022/05/31 13:31:04;;;;;;;2.63;1.10;;;16.90;99.90;;;;;;5004022;28;20029;-76
2022/05/31 13:33:32;;;;;;;2.42;1.15;;;16.90;99.90;;;;;;5022319;28;20021;-77
2022/05/31 13:36:19;;;;;;;3.53;1.48;;;17.00;99.90;;;;;;5022205;28;20022;-78
2022/05/31 13:38:49;;;;;;;1.35;0.90;;;17.00;99.90;;;;;;5004736;28;20037;-76
2022/05/31 13:41:20;;;;;;;1.85;0.95;;;17.00;99.90;;;;;;5021810;28;20032;-78
2022/05/31 13:44:00;;;;;;;3.40;0.93;;;17.00;99.90;;;;;;5022390;28;20454;-77